sensor_id;sensor_type;location;lat;lon;timestamp;P1;durP1;ratioP1;P2;durP2;ratioP2
43311;SDS011;30041;48.300;16.352;2022-11-23T00:02:22;5.13;;;2.75;;
43311;SDS011;30041;48.300;16.352;2022-11-23T00:04:48;6.38;;;3.33;;
43311;SDS011;30041;48.300;16.352;2022-11-23T00:07:13;4.85;;;2.92;;
43311;SDS011;30041;48.300;16.352;2022-11-23T00:09:39;4.35;;;3.00;;
43311;SDS011;30041;48.300;16.352;2022-11-23T00:12:04;4.60;;;2.80;;
43311;SDS011;30041;48.300;16.352;2022-11-23T00:14:30;4.47;;;2.83;;
43311;SDS011;30041;48.300;16.352;2022-11-23T00:16:56;3.45;;;2.70;;
43311;SDS011;30041;48.300;16.352;2022-11-23T00:19:22;4.32;;;2.80;;
43311;SDS011;30041;48.300;16.352;2022-11-23T00:21:47;4.07;;;2.70;;
43311;SDS011;30041;48.300;16.352;2022-11-23T00:24:13;3.75;;;2.97;;
43311;SDS011;30041;48.300;16.352;2022-11-23T00:26:38;5.55;;;2.70;;
43311;SDS011;30041;48.300;16.352;2022-11-23T00:29:04;4.35;;;2.70;;
43311;SDS011;30041;48.300;16.352;2022-11-23T00:31:29;3.55;;;2.70;;
43311;SDS011;30041;48.300;16.352;2022-11-23T00:33:55;4.05;;;3.05;;
43311;SDS011;30041;48.300;16.352;2022-11-23T00:36:22;3.88;;;2.90;;
43311;SDS011;30041;48.300;16.352;2022-11-23T00:38:49;3.95;;;2.90;;
43311;SDS011;30041;48.300;16.352;2022-11-23T00:41:16;4.30;;;3.15;;
43311;SDS011;30041;48.300;16.352;2022-11-23T00:43:44;3.20;;;2.55;;
43311;SDS011;30041;48.300;16.352;2022-11-23T00:46:17;4.43;;;3.03;;
43311;SDS011;30041;48.300;16.352;2022-11-23T00:48:43;4.30;;;2.55;;
43311;SDS011;30041;48.300;16.352;2022-11-23T00:51:11;4.10;;;2.50;;
43311;SDS011;30041;48.300;16.352;2022-11-23T00:53:39;4.90;;;3.00;;
43311;SDS011;30041;48.300;16.352;2022-11-23T00:56:04;5.40;;;2.72;;
43311;SDS011;30041;48.300;16.352;2022-11-23T00:58:30;3.78;;;2.85;;
43311;SDS011;30041;48.300;16.352;2022-11-23T01:01:00;4.78;;;2.70;;
43311;SDS011;30041;48.300;16.352;2022-11-23T01:03:28;3.17;;;2.60;;
43311;SDS011;30041;48.300;16.352;2022-11-23T01:05:54;3.75;;;2.67;;
43311;SDS011;30041;48.300;16.352;2022-11-23T01:08:20;4.47;;;2.80;;
43311;SDS011;30041;48.300;16.352;2022-11-23T01:10:45;3.42;;;2.30;;
43311;SDS011;30041;48.300;16.352;2022-11-23T01:13:11;4.75;;;2.83;;
43311;SDS011;30041;48.300;16.352;2022-11-23T01:15:36;4.25;;;2.90;;
43311;SDS011;30041;48.300;16.352;2022-11-23T01:18:02;4.32;;;2.67;;
43311;SDS011;30041;48.300;16.352;2022-11-23T01:20:27;3.67;;;2.55;;
43311;SDS011;30041;48.300;16.352;2022-11-23T01:22:53;3.45;;;2.85;;
43311;SDS011;30041;48.300;16.352;2022-11-23T01:25:18;3.15;;;2.50;;
43311;SDS011;30041;48.300;16.352;2022-11-23T01:27:44;4.40;;;2.75;;
43311;SDS011;30041;48.300;16.352;2022-11-23T01:30:09;3.63;;;2.75;;
43311;SDS011;30041;48.300;16.352;2022-11-23T01:32:35;4.35;;;2.80;;
43311;SDS011;30041;48.300;16.352;2022-11-23T01:35:01;4.07;;;2.80;;
43311;SDS011;30041;48.300;16.352;2022-11-23T01:37:26;3.42;;;2.72;;
43311;SDS011;30041;48.300;16.352;2022-11-23T01:39:52;4.03;;;2.72;;
43311;SDS011;30041;48.300;16.352;2022-11-23T01:42:17;3.55;;;2.75;;
43311;SDS011;30041;48.300;16.352;2022-11-23T01:44:43;3.22;;;2.55;;
43311;SDS011;30041;48.300;16.352;2022-11-23T01:47:09;3.72;;;2.88;;
43311;SDS011;30041;48.300;16.352;2022-11-23T01:52:21;3.65;;;3.00;;
43311;SDS011;30041;48.300;16.352;2022-11-23T01:54:51;3.38;;;2.50;;
43311;SDS011;30041;48.300;16.352;2022-11-23T01:57:25;4.22;;;2.78;;
43311;SDS011;30041;48.300;16.352;2022-11-23T01:59:56;3.97;;;2.50;;
43311;SDS011;30041;48.300;16.352;2022-11-23T02:02:22;3.83;;;2.65;;
43311;SDS011;30041;48.300;16.352;2022-11-23T02:04:51;3.33;;;2.40;;
43311;SDS011;30041;48.300;16.352;2022-11-23T02:07:18;3.28;;;2.45;;
43311;SDS011;30041;48.300;16.352;2022-11-23T02:09:46;3.28;;;2.50;;
43311;SDS011;30041;48.300;16.352;2022-11-23T02:12:12;3.75;;;2.80;;
43311;SDS011;30041;48.300;16.352;2022-11-23T02:14:39;3.30;;;2.70;;
43311;SDS011;30041;48.300;16.352;2022-11-23T02:17:05;3.35;;;2.50;;
43311;SDS011;30041;48.300;16.352;2022-11-23T02:22:32;3.58;;;2.70;;
43311;SDS011;30041;48.300;16.352;2022-11-23T02:25:18;4.95;;;2.45;;
43311;SDS011;30041;48.300;16.352;2022-11-23T02:27:46;2.80;;;2.28;;
43311;SDS011;30041;48.300;16.352;2022-11-23T02:30:12;3.10;;;2.60;;
43311;SDS011;30041;48.300;16.352;2022-11-23T02:32:37;3.42;;;2.63;;
43311;SDS011;30041;48.300;16.352;2022-11-23T02:35:03;3.20;;;2.45;;
43311;SDS011;30041;48.300;16.352;2022-11-23T02:37:29;3.97;;;2.70;;
43311;SDS011;30041;48.300;16.352;2022-11-23T02:39:54;3.65;;;2.58;;
43311;SDS011;30041;48.300;16.352;2022-11-23T02:42:24;3.00;;;2.60;;
43311;SDS011;30041;48.300;16.352;2022-11-23T02:47:30;4.00;;;2.67;;
43311;SDS011;30041;48.300;16.352;2022-11-23T02:49:56;3.85;;;2.70;;
43311;SDS011;30041;48.300;16.352;2022-11-23T02:52:22;3.15;;;2.45;;
43311;SDS011;30041;48.300;16.352;2022-11-23T02:54:47;3.08;;;2.20;;
43311;SDS011;30041;48.300;16.352;2022-11-23T02:57:13;3.28;;;2.45;;
43311;SDS011;30041;48.300;16.352;2022-11-23T02:59:39;3.45;;;2.40;;
43311;SDS011;30041;48.300;16.352;2022-11-23T03:02:04;3.13;;;2.30;;
43311;SDS011;30041;48.300;16.352;2022-11-23T03:04:30;3.00;;;2.20;;
43311;SDS011;30041;48.300;16.352;2022-11-23T03:06:56;3.17;;;2.20;;
43311;SDS011;30041;48.300;16.352;2022-11-23T03:09:22;3.75;;;2.60;;
43311;SDS011;30041;48.300;16.352;2022-11-23T03:11:48;2.88;;;2.33;;
43311;SDS011;30041;48.300;16.352;2022-11-23T03:14:13;3.42;;;2.63;;
43311;SDS011;30041;48.300;16.352;2022-11-23T03:16:39;3.53;;;2.38;;
43311;SDS011;30041;48.300;16.352;2022-11-23T03:19:05;3.53;;;2.28;;
43311;SDS011;30041;48.300;16.352;2022-11-23T03:21:30;4.53;;;2.67;;
43311;SDS011;30041;48.300;16.352;2022-11-23T03:23:56;2.70;;;2.30;;
43311;SDS011;30041;48.300;16.352;2022-11-23T03:26:21;3.05;;;2.45;;
43311;SDS011;30041;48.300;16.352;2022-11-23T03:28:47;4.97;;;2.50;;
43311;SDS011;30041;48.300;16.352;2022-11-23T03:31:12;2.88;;;2.25;;
43311;SDS011;30041;48.300;16.352;2022-11-23T03:33:38;2.83;;;2.30;;
43311;SDS011;30041;48.300;16.352;2022-11-23T03:36:04;2.72;;;2.20;;
43311;SDS011;30041;48.300;16.352;2022-11-23T03:38:29;2.70;;;2.13;;
43311;SDS011;30041;48.300;16.352;2022-11-23T03:40:55;4.07;;;2.30;;
43311;SDS011;30041;48.300;16.352;2022-11-23T03:43:21;3.60;;;2.47;;
43311;SDS011;30041;48.300;16.352;2022-11-23T03:45:47;3.20;;;2.28;;
43311;SDS011;30041;48.300;16.352;2022-11-23T03:48:12;3.08;;;2.55;;
43311;SDS011;30041;48.300;16.352;2022-11-23T03:50:39;2.83;;;2.10;;
43311;SDS011;30041;48.300;16.352;2022-11-23T03:53:04;2.63;;;2.30;;
43311;SDS011;30041;48.300;16.352;2022-11-23T03:55:30;2.95;;;2.30;;
43311;SDS011;30041;48.300;16.352;2022-11-23T03:57:56;3.72;;;2.30;;
43311;SDS011;30041;48.300;16.352;2022-11-23T04:00:22;3.28;;;2.30;;
43311;SDS011;30041;48.300;16.352;2022-11-23T04:02:47;2.45;;;2.00;;
43311;SDS011;30041;48.300;16.352;2022-11-23T04:05:13;2.83;;;2.10;;
43311;SDS011;30041;48.300;16.352;2022-11-23T04:07:39;3.08;;;2.10;;
43311;SDS011;30041;48.300;16.352;2022-11-23T04:10:05;3.20;;;2.42;;
43311;SDS011;30041;48.300;16.352;2022-11-23T04:12:30;2.60;;;2.10;;
43311;SDS011;30041;48.300;16.352;2022-11-23T04:14:56;3.08;;;2.50;;
43311;SDS011;30041;48.300;16.352;2022-11-23T04:17:21;3.28;;;2.38;;
43311;SDS011;30041;48.300;16.352;2022-11-23T04:19:47;3.35;;;2.60;;
43311;SDS011;30041;48.300;16.352;2022-11-23T04:22:12;3.00;;;2.20;;
43311;SDS011;30041;48.300;16.352;2022-11-23T04:24:38;3.45;;;2.20;;
43311;SDS011;30041;48.300;16.352;2022-11-23T04:27:03;2.90;;;2.10;;
43311;SDS011;30041;48.300;16.352;2022-11-23T04:29:29;3.40;;;2.40;;
43311;SDS011;30041;48.300;16.352;2022-11-23T04:31:54;3.28;;;2.17;;
43311;SDS011;30041;48.300;16.352;2022-11-23T04:34:20;2.78;;;2.05;;
43311;SDS011;30041;48.300;16.352;2022-11-23T04:36:49;2.28;;;1.77;;
43311;SDS011;30041;48.300;16.352;2022-11-23T04:39:14;3.40;;;2.33;;
43311;SDS011;30041;48.300;16.352;2022-11-23T04:41:40;2.92;;;2.08;;
43311;SDS011;30041;48.300;16.352;2022-11-23T04:44:05;2.60;;;2.08;;
43311;SDS011;30041;48.300;16.352;2022-11-23T04:46:31;3.28;;;2.20;;
43311;SDS011;30041;48.300;16.352;2022-11-23T04:48:57;4.13;;;2.20;;
43311;SDS011;30041;48.300;16.352;2022-11-23T04:51:25;6.88;;;2.17;;
43311;SDS011;30041;48.300;16.352;2022-11-23T04:53:50;3.03;;;2.03;;
43311;SDS011;30041;48.300;16.352;2022-11-23T04:56:16;5.03;;;2.58;;
43311;SDS011;30041;48.300;16.352;2022-11-23T04:58:41;3.22;;;2.47;;
43311;SDS011;30041;48.300;16.352;2022-11-23T05:01:07;4.72;;;2.33;;
43311;SDS011;30041;48.300;16.352;2022-11-23T05:03:33;4.70;;;2.30;;
43311;SDS011;30041;48.300;16.352;2022-11-23T05:05:58;3.42;;;2.13;;
43311;SDS011;30041;48.300;16.352;2022-11-23T05:08:33;3.78;;;2.35;;
43311;SDS011;30041;48.300;16.352;2022-11-23T05:11:03;2.95;;;2.00;;
43311;SDS011;30041;48.300;16.352;2022-11-23T05:13:29;3.72;;;2.22;;
43311;SDS011;30041;48.300;16.352;2022-11-23T05:15:54;4.47;;;2.05;;
43311;SDS011;30041;48.300;16.352;2022-11-23T05:18:20;3.22;;;1.88;;
43311;SDS011;30041;48.300;16.352;2022-11-23T05:20:45;2.60;;;1.88;;
43311;SDS011;30041;48.300;16.352;2022-11-23T05:23:11;3.88;;;2.00;;
43311;SDS011;30041;48.300;16.352;2022-11-23T05:25:37;2.42;;;1.85;;
43311;SDS011;30041;48.300;16.352;2022-11-23T05:28:03;2.35;;;1.83;;
43311;SDS011;30041;48.300;16.352;2022-11-23T05:30:29;2.55;;;1.83;;
43311;SDS011;30041;48.300;16.352;2022-11-23T05:32:58;8.48;;;2.70;;
43311;SDS011;30041;48.300;16.352;2022-11-23T05:35:27;11.18;;;2.42;;
43311;SDS011;30041;48.300;16.352;2022-11-23T05:37:53;8.55;;;2.30;;
43311;SDS011;30041;48.300;16.352;2022-11-23T05:40:18;9.57;;;2.25;;
43311;SDS011;30041;48.300;16.352;2022-11-23T05:42:44;7.63;;;1.98;;
43311;SDS011;30041;48.300;16.352;2022-11-23T05:45:09;5.88;;;2.13;;
43311;SDS011;30041;48.300;16.352;2022-11-23T05:47:35;7.65;;;1.98;;
43311;SDS011;30041;48.300;16.352;2022-11-23T05:50:01;5.38;;;2.35;;
43311;SDS011;30041;48.300;16.352;2022-11-23T05:52:26;6.78;;;1.90;;
43311;SDS011;30041;48.300;16.352;2022-11-23T05:54:52;4.32;;;2.10;;
43311;SDS011;30041;48.300;16.352;2022-11-23T05:57:17;6.57;;;2.00;;
43311;SDS011;30041;48.300;16.352;2022-11-23T05:59:43;14.10;;;2.90;;
43311;SDS011;30041;48.300;16.352;2022-11-23T06:02:09;9.02;;;2.38;;
43311;SDS011;30041;48.300;16.352;2022-11-23T06:04:34;9.75;;;2.40;;
43311;SDS011;30041;48.300;16.352;2022-11-23T06:07:00;7.88;;;2.30;;
43311;SDS011;30041;48.300;16.352;2022-11-23T06:09:26;5.78;;;2.28;;
43311;SDS011;30041;48.300;16.352;2022-11-23T06:11:52;5.38;;;2.10;;
43311;SDS011;30041;48.300;16.352;2022-11-23T06:14:18;6.90;;;2.20;;
43311;SDS011;30041;48.300;16.352;2022-11-23T06:16:44;6.65;;;2.00;;
43311;SDS011;30041;48.300;16.352;2022-11-23T06:19:12;4.00;;;1.80;;
43311;SDS011;30041;48.300;16.352;2022-11-23T06:21:37;7.95;;;2.10;;
43311;SDS011;30041;48.300;16.352;2022-11-23T06:24:03;7.28;;;2.03;;
43311;SDS011;30041;48.300;16.352;2022-11-23T06:26:31;7.40;;;1.92;;
43311;SDS011;30041;48.300;16.352;2022-11-23T06:28:57;4.65;;;1.90;;
43311;SDS011;30041;48.300;16.352;2022-11-23T06:31:23;5.70;;;2.00;;
43311;SDS011;30041;48.300;16.352;2022-11-23T06:33:48;7.43;;;1.98;;
43311;SDS011;30041;48.300;16.352;2022-11-23T06:36:15;7.57;;;2.30;;
43311;SDS011;30041;48.300;16.352;2022-11-23T06:38:41;6.00;;;2.17;;
43311;SDS011;30041;48.300;16.352;2022-11-23T06:41:06;4.20;;;1.95;;
43311;SDS011;30041;48.300;16.352;2022-11-23T06:43:32;5.15;;;2.20;;
43311;SDS011;30041;48.300;16.352;2022-11-23T06:45:58;7.05;;;1.98;;
43311;SDS011;30041;48.300;16.352;2022-11-23T06:48:23;4.85;;;1.80;;
43311;SDS011;30041;48.300;16.352;2022-11-23T06:50:49;4.47;;;1.83;;
43311;SDS011;30041;48.300;16.352;2022-11-23T06:53:15;3.78;;;2.13;;
43311;SDS011;30041;48.300;16.352;2022-11-23T06:55:40;6.57;;;1.92;;
43311;SDS011;30041;48.300;16.352;2022-11-23T06:58:07;5.82;;;1.95;;
43311;SDS011;30041;48.300;16.352;2022-11-23T07:00:32;7.93;;;2.20;;
43311;SDS011;30041;48.300;16.352;2022-11-23T07:02:58;4.05;;;1.83;;
43311;SDS011;30041;48.300;16.352;2022-11-23T07:05:24;3.70;;;1.90;;
43311;SDS011;30041;48.300;16.352;2022-11-23T07:07:49;3.80;;;2.10;;
43311;SDS011;30041;48.300;16.352;2022-11-23T07:10:15;4.90;;;2.28;;
43311;SDS011;30041;48.300;16.352;2022-11-23T07:12:43;3.90;;;2.38;;
43311;SDS011;30041;48.300;16.352;2022-11-23T07:15:09;5.10;;;2.85;;
43311;SDS011;30041;48.300;16.352;2022-11-23T07:17:41;5.72;;;2.38;;
43311;SDS011;30041;48.300;16.352;2022-11-23T07:20:07;4.53;;;2.25;;
43311;SDS011;30041;48.300;16.352;2022-11-23T07:22:34;5.47;;;2.80;;
43311;SDS011;30041;48.300;16.352;2022-11-23T07:25:00;3.58;;;2.03;;
43311;SDS011;30041;48.300;16.352;2022-11-23T07:27:26;5.28;;;2.10;;
43311;SDS011;30041;48.300;16.352;2022-11-23T07:29:51;4.70;;;2.10;;
43311;SDS011;30041;48.300;16.352;2022-11-23T07:32:17;3.97;;;1.83;;
43311;SDS011;30041;48.300;16.352;2022-11-23T07:34:42;3.65;;;1.95;;
43311;SDS011;30041;48.300;16.352;2022-11-23T07:37:08;7.30;;;2.20;;
43311;SDS011;30041;48.300;16.352;2022-11-23T07:39:33;5.20;;;2.00;;
43311;SDS011;30041;48.300;16.352;2022-11-23T07:41:59;5.00;;;2.10;;
43311;SDS011;30041;48.300;16.352;2022-11-23T07:44:24;3.33;;;1.85;;
43311;SDS011;30041;48.300;16.352;2022-11-23T07:46:53;3.15;;;1.98;;
43311;SDS011;30041;48.300;16.352;2022-11-23T07:49:18;3.17;;;2.00;;
43311;SDS011;30041;48.300;16.352;2022-11-23T07:51:44;2.92;;;1.80;;
43311;SDS011;30041;48.300;16.352;2022-11-23T07:54:10;2.35;;;1.50;;
43311;SDS011;30041;48.300;16.352;2022-11-23T07:56:35;4.45;;;1.95;;
43311;SDS011;30041;48.300;16.352;2022-11-23T07:59:01;3.22;;;1.60;;
43311;SDS011;30041;48.300;16.352;2022-11-23T08:01:26;3.30;;;1.83;;
43311;SDS011;30041;48.300;16.352;2022-11-23T08:03:55;3.72;;;1.90;;
43311;SDS011;30041;48.300;16.352;2022-11-23T08:06:20;2.67;;;1.65;;
43311;SDS011;30041;48.300;16.352;2022-11-23T08:08:46;2.90;;;1.60;;
43311;SDS011;30041;48.300;16.352;2022-11-23T08:11:11;3.50;;;1.58;;
43311;SDS011;30041;48.300;16.352;2022-11-23T08:13:37;3.38;;;1.80;;
43311;SDS011;30041;48.300;16.352;2022-11-23T08:16:03;2.55;;;1.38;;
43311;SDS011;30041;48.300;16.352;2022-11-23T08:18:28;2.15;;;1.45;;
43311;SDS011;30041;48.300;16.352;2022-11-23T08:20:54;3.03;;;1.60;;
43311;SDS011;30041;48.300;16.352;2022-11-23T08:23:23;3.15;;;1.63;;
43311;SDS011;30041;48.300;16.352;2022-11-23T08:25:49;3.70;;;1.50;;
43311;SDS011;30041;48.300;16.352;2022-11-23T08:28:14;2.85;;;1.40;;
43311;SDS011;30041;48.300;16.352;2022-11-23T08:30:39;2.72;;;1.48;;
43311;SDS011;30041;48.300;16.352;2022-11-23T08:33:05;2.78;;;1.40;;
43311;SDS011;30041;48.300;16.352;2022-11-23T08:35:32;1.98;;;1.40;;
43311;SDS011;30041;48.300;16.352;2022-11-23T08:37:58;2.72;;;1.55;;
43311;SDS011;30041;48.300;16.352;2022-11-23T08:40:24;3.45;;;1.50;;
43311;SDS011;30041;48.300;16.352;2022-11-23T08:42:50;4.95;;;1.70;;
43311;SDS011;30041;48.300;16.352;2022-11-23T08:45:15;2.50;;;1.50;;
43311;SDS011;30041;48.300;16.352;2022-11-23T08:47:41;2.65;;;1.33;;
43311;SDS011;30041;48.300;16.352;2022-11-23T08:50:06;2.55;;;1.42;;
43311;SDS011;30041;48.300;16.352;2022-11-23T08:52:32;2.45;;;1.50;;
43311;SDS011;30041;48.300;16.352;2022-11-23T08:54:57;2.53;;;1.60;;
43311;SDS011;30041;48.300;16.352;2022-11-23T08:57:23;2.22;;;1.33;;
43311;SDS011;30041;48.300;16.352;2022-11-23T08:59:49;2.80;;;1.30;;
43311;SDS011;30041;48.300;16.352;2022-11-23T09:02:14;2.55;;;1.30;;
43311;SDS011;30041;48.300;16.352;2022-11-23T09:04:40;2.17;;;1.40;;
43311;SDS011;30041;48.300;16.352;2022-11-23T09:07:05;2.10;;;1.40;;
43311;SDS011;30041;48.300;16.352;2022-11-23T09:09:31;2.63;;;1.50;;
43311;SDS011;30041;48.300;16.352;2022-11-23T09:11:57;2.13;;;1.30;;
43311;SDS011;30041;48.300;16.352;2022-11-23T09:14:22;1.65;;;1.30;;
43311;SDS011;30041;48.300;16.352;2022-11-23T09:16:48;1.60;;;1.23;;
43311;SDS011;30041;48.300;16.352;2022-11-23T09:19:13;2.30;;;1.27;;
43311;SDS011;30041;48.300;16.352;2022-11-23T09:21:39;1.92;;;1.33;;
43311;SDS011;30041;48.300;16.352;2022-11-23T09:24:04;2.58;;;1.40;;
43311;SDS011;30041;48.300;16.352;2022-11-23T09:26:30;2.30;;;1.40;;
43311;SDS011;30041;48.300;16.352;2022-11-23T09:28:59;4.10;;;1.88;;
43311;SDS011;30041;48.300;16.352;2022-11-23T09:31:24;2.63;;;1.80;;
43311;SDS011;30041;48.300;16.352;2022-11-23T09:33:53;3.17;;;2.10;;
43311;SDS011;30041;48.300;16.352;2022-11-23T09:36:18;3.80;;;2.30;;
43311;SDS011;30041;48.300;16.352;2022-11-23T09:38:44;3.28;;;2.42;;
43311;SDS011;30041;48.300;16.352;2022-11-23T09:44:45;3.15;;;2.67;;
43311;SDS011;30041;48.300;16.352;2022-11-23T09:47:11;5.18;;;2.95;;
43311;SDS011;30041;48.300;16.352;2022-11-23T09:49:53;4.95;;;2.58;;
43311;SDS011;30041;48.300;16.352;2022-11-23T09:52:31;4.65;;;2.63;;
43311;SDS011;30041;48.300;16.352;2022-11-23T09:55:02;3.97;;;2.50;;
43311;SDS011;30041;48.300;16.352;2022-11-23T09:57:34;5.93;;;2.38;;
43311;SDS011;30041;48.300;16.352;2022-11-23T10:00:02;3.92;;;2.30;;
43311;SDS011;30041;48.300;16.352;2022-11-23T10:02:33;4.45;;;2.10;;
43311;SDS011;30041;48.300;16.352;2022-11-23T10:05:09;3.30;;;2.03;;
43311;SDS011;30041;48.300;16.352;2022-11-23T10:07:57;3.50;;;2.00;;
43311;SDS011;30041;48.300;16.352;2022-11-23T10:10:58;2.55;;;1.67;;
43311;SDS011;30041;48.300;16.352;2022-11-23T10:13:44;2.78;;;1.67;;
43311;SDS011;30041;48.300;16.352;2022-11-23T10:21:49;2.20;;;1.45;;
43311;SDS011;30041;48.300;16.352;2022-11-23T10:24:43;1.80;;;1.27;;
43311;SDS011;30041;48.300;16.352;2022-11-23T10:27:17;2.83;;;1.50;;
43311;SDS011;30041;48.300;16.352;2022-11-23T10:29:45;2.10;;;1.27;;
43311;SDS011;30041;48.300;16.352;2022-11-23T10:32:17;3.08;;;1.17;;
43311;SDS011;30041;48.300;16.352;2022-11-23T10:34:56;1.83;;;1.20;;
43311;SDS011;30041;48.300;16.352;2022-11-23T10:37:22;1.52;;;1.10;;
43311;SDS011;30041;48.300;16.352;2022-11-23T10:39:48;1.35;;;1.00;;
43311;SDS011;30041;48.300;16.352;2022-11-23T10:44:45;1.88;;;0.90;;
43311;SDS011;30041;48.300;16.352;2022-11-23T10:47:34;1.35;;;0.88;;
43311;SDS011;30041;48.300;16.352;2022-11-23T10:50:28;1.00;;;0.90;;
43311;SDS011;30041;48.300;16.352;2022-11-23T10:53:00;1.13;;;0.90;;
43311;SDS011;30041;48.300;16.352;2022-11-23T10:55:50;2.35;;;0.88;;
43311;SDS011;30041;48.300;16.352;2022-11-23T11:01:11;0.88;;;0.75;;
43311;SDS011;30041;48.300;16.352;2022-11-23T11:03:41;1.13;;;0.80;;
43311;SDS011;30041;48.300;16.352;2022-11-23T11:06:07;0.77;;;0.60;;
43311;SDS011;30041;48.300;16.352;2022-11-23T11:08:33;0.80;;;0.60;;
43311;SDS011;30041;48.300;16.352;2022-11-23T11:11:23;0.77;;;0.55;;
43311;SDS011;30041;48.300;16.352;2022-11-23T11:14:00;0.68;;;0.50;;
43311;SDS011;30041;48.300;16.352;2022-11-23T11:16:33;0.80;;;0.50;;
43311;SDS011;30041;48.300;16.352;2022-11-23T11:21:51;0.68;;;0.45;;
43311;SDS011;30041;48.300;16.352;2022-11-23T11:24:22;0.93;;;0.57;;
43311;SDS011;30041;48.300;16.352;2022-11-23T11:26:57;0.40;;;0.40;;
43311;SDS011;30041;48.300;16.352;2022-11-23T11:29:33;1.00;;;0.50;;
43311;SDS011;30041;48.300;16.352;2022-11-23T11:37:17;0.20;;;0.20;;
43311;SDS011;30041;48.300;16.352;2022-11-23T11:39:56;0.50;;;0.30;;
43311;SDS011;30041;48.300;16.352;2022-11-23T11:45:39;0.28;;;0.22;;
43311;SDS011;30041;48.300;16.352;2022-11-23T11:50:56;0.38;;;0.30;;
43311;SDS011;30041;48.300;16.352;2022-11-23T11:53:48;0.40;;;0.40;;
43311;SDS011;30041;48.300;16.352;2022-11-23T11:59:02;0.40;;;0.20;;
43311;SDS011;30041;48.300;16.352;2022-11-23T12:01:39;0.30;;;0.28;;
43311;SDS011;30041;48.300;16.352;2022-11-23T12:10:10;0.10;;;0.10;;
43311;SDS011;30041;48.300;16.352;2022-11-23T12:12:41;0.28;;;0.15;;
43311;SDS011;30041;48.300;16.352;2022-11-23T12:15:09;0.10;;;0.10;;
43311;SDS011;30041;48.300;16.352;2022-11-23T12:17:48;0.20;;;0.10;;
43311;SDS011;30041;48.300;16.352;2022-11-23T12:20:27;0.17;;;0.17;;
43311;SDS011;30041;48.300;16.352;2022-11-23T12:25:45;0.00;;;0.00;;
43311;SDS011;30041;48.300;16.352;2022-11-23T12:28:35;0.35;;;0.10;;
43311;SDS011;30041;48.300;16.352;2022-11-23T12:34:03;0.28;;;0.15;;
43311;SDS011;30041;48.300;16.352;2022-11-23T12:36:51;0.10;;;0.03;;
43311;SDS011;30041;48.300;16.352;2022-11-23T12:47:45;0.00;;;0.00;;
43311;SDS011;30041;48.300;16.352;2022-11-23T12:50:25;0.00;;;0.00;;
43311;SDS011;30041;48.300;16.352;2022-11-23T12:58:47;0.10;;;0.00;;
43311;SDS011;30041;48.300;16.352;2022-11-23T13:04:05;0.10;;;0.10;;
43311;SDS011;30041;48.300;16.352;2022-11-23T13:09:54;0.00;;;0.00;;
43311;SDS011;30041;48.300;16.352;2022-11-23T13:18:45;0.00;;;0.00;;
43311;SDS011;30041;48.300;16.352;2022-11-23T13:23:41;0.00;;;0.00;;
43311;SDS011;30041;48.300;16.352;2022-11-23T13:28:58;0.00;;;0.00;;
43311;SDS011;30041;48.300;16.352;2022-11-23T13:31:25;0.00;;;0.00;;
43311;SDS011;30041;48.300;16.352;2022-11-23T13:33:55;0.00;;;0.00;;
43311;SDS011;30041;48.300;16.352;2022-11-23T13:38:54;0.20;;;0.10;;
43311;SDS011;30041;48.300;16.352;2022-11-23T13:44:27;0.10;;;0.00;;
43311;SDS011;30041;48.300;16.352;2022-11-23T13:46:55;0.00;;;0.00;;
43311;SDS011;30041;48.300;16.352;2022-11-23T13:49:30;0.00;;;0.00;;
43311;SDS011;30041;48.300;16.352;2022-11-23T13:52:14;0.00;;;0.00;;
43311;SDS011;30041;48.300;16.352;2022-11-23T13:57:36;0.10;;;0.00;;
43311;SDS011;30041;48.300;16.352;2022-11-23T14:06:12;0.00;;;0.00;;
43311;SDS011;30041;48.300;16.352;2022-11-23T14:08:51;0.10;;;0.00;;
43311;SDS011;30041;48.300;16.352;2022-11-23T14:11:23;0.00;;;0.00;;
43311;SDS011;30041;48.300;16.352;2022-11-23T14:13:55;0.00;;;0.00;;
43311;SDS011;30041;48.300;16.352;2022-11-23T14:22:43;0.10;;;0.00;;
43311;SDS011;30041;48.300;16.352;2022-11-23T14:25:39;0.00;;;0.00;;
43311;SDS011;30041;48.300;16.352;2022-11-23T14:36:56;0.00;;;0.00;;
43311;SDS011;30041;48.300;16.352;2022-11-23T14:42:17;0.20;;;0.00;;
43311;SDS011;30041;48.300;16.352;2022-11-23T14:44:46;0.00;;;0.00;;
43311;SDS011;30041;48.300;16.352;2022-11-23T14:47:13;0.00;;;0.00;;
43311;SDS011;30041;48.300;16.352;2022-11-23T14:49:48;0.00;;;0.00;;
43311;SDS011;30041;48.300;16.352;2022-11-23T14:52:17;0.00;;;0.00;;
43311;SDS011;30041;48.300;16.352;2022-11-23T14:54:52;0.00;;;0.00;;
43311;SDS011;30041;48.300;16.352;2022-11-23T14:57:19;0.00;;;0.00;;
43311;SDS011;30041;48.300;16.352;2022-11-23T14:59:47;0.08;;;0.00;;
43311;SDS011;30041;48.300;16.352;2022-11-23T15:02:17;0.00;;;0.00;;
43311;SDS011;30041;48.300;16.352;2022-11-23T15:13:17;0.00;;;0.00;;
43311;SDS011;30041;48.300;16.352;2022-11-23T15:15:44;0.00;;;0.00;;
43311;SDS011;30041;48.300;16.352;2022-11-23T15:18:10;0.00;;;0.00;;
43311;SDS011;30041;48.300;16.352;2022-11-23T15:20:42;0.00;;;0.00;;
43311;SDS011;30041;48.300;16.352;2022-11-23T15:23:21;0.00;;;0.00;;
43311;SDS011;30041;48.300;16.352;2022-11-23T15:25:49;0.03;;;0.00;;
43311;SDS011;30041;48.300;16.352;2022-11-23T15:28:15;0.00;;;0.00;;
43311;SDS011;30041;48.300;16.352;2022-11-23T15:30:45;0.00;;;0.00;;
43311;SDS011;30041;48.300;16.352;2022-11-23T15:33:11;0.00;;;0.00;;
43311;SDS011;30041;48.300;16.352;2022-11-23T15:35:37;0.00;;;0.00;;
43311;SDS011;30041;48.300;16.352;2022-11-23T15:38:06;0.03;;;0.00;;
43311;SDS011;30041;48.300;16.352;2022-11-23T15:40:36;0.00;;;0.00;;
43311;SDS011;30041;48.300;16.352;2022-11-23T15:43:10;0.00;;;0.00;;
43311;SDS011;30041;48.300;16.352;2022-11-23T15:48:09;0.00;;;0.00;;
43311;SDS011;30041;48.300;16.352;2022-11-23T15:50:51;0.00;;;0.00;;
43311;SDS011;30041;48.300;16.352;2022-11-23T15:53:25;0.00;;;0.00;;
43311;SDS011;30041;48.300;16.352;2022-11-23T15:55:53;0.00;;;0.00;;
43311;SDS011;30041;48.300;16.352;2022-11-23T15:58:22;0.00;;;0.00;;
43311;SDS011;30041;48.300;16.352;2022-11-23T16:00:50;0.00;;;0.00;;
43311;SDS011;30041;48.300;16.352;2022-11-23T16:08:38;0.20;;;0.00;;
43311;SDS011;30041;48.300;16.352;2022-11-23T16:11:04;0.00;;;0.00;;
43311;SDS011;30041;48.300;16.352;2022-11-23T16:13:42;0.00;;;0.00;;
43311;SDS011;30041;48.300;16.352;2022-11-23T16:16:08;0.00;;;0.00;;
43311;SDS011;30041;48.300;16.352;2022-11-23T16:18:49;0.00;;;0.00;;
43311;SDS011;30041;48.300;16.352;2022-11-23T16:21:16;0.00;;;0.00;;
43311;SDS011;30041;48.300;16.352;2022-11-23T16:23:47;0.00;;;0.00;;
43311;SDS011;30041;48.300;16.352;2022-11-23T16:26:20;0.00;;;0.00;;
43311;SDS011;30041;48.300;16.352;2022-11-23T16:28:57;0.00;;;0.00;;
43311;SDS011;30041;48.300;16.352;2022-11-23T16:31:27;0.00;;;0.00;;
43311;SDS011;30041;48.300;16.352;2022-11-23T16:33:54;0.00;;;0.00;;
43311;SDS011;30041;48.300;16.352;2022-11-23T16:36:20;0.00;;;0.00;;
43311;SDS011;30041;48.300;16.352;2022-11-23T16:38:46;0.05;;;0.00;;
43311;SDS011;30041;48.300;16.352;2022-11-23T16:41:12;0.00;;;0.00;;
43311;SDS011;30041;48.300;16.352;2022-11-23T16:43:37;0.00;;;0.00;;
43311;SDS011;30041;48.300;16.352;2022-11-23T16:46:03;0.00;;;0.00;;
43311;SDS011;30041;48.300;16.352;2022-11-23T16:51:01;0.00;;;0.00;;
43311;SDS011;30041;48.300;16.352;2022-11-23T16:53:27;0.15;;;0.00;;
43311;SDS011;30041;48.300;16.352;2022-11-23T16:55:52;0.10;;;0.00;;